Terminal Aerodrome Forecast
Issued by NWS Louisville, KY

Home | Current Version | Previous Version | Text Only | Print | Product List | Glossary On
Versions: 1 2 3 4 5 6 7 8 9 10 11 12 13 14
000
FTUS43 KLMK 012320
TAFBWG
TAF
KBWG 012320Z 0200/0224 VRB03KT P6SM BKN250
     FM020700 00000KT 3SM BR SCT250
     FM021030 00000KT 1SM BR SCT250
      TEMPO 0211/0212 1/2SM FG SCT003
     FM021230 00000KT 3SM BR SCT250
     FM021330 07004KT P6SM SCT050=

USA.gov is the U.S. government's official web portal to all federal, state and local government web resources and services.